createdAt,value
2023-02-22T00:01:51.117Z,4.37
2023-02-22T00:04:21.457Z,4.83
2023-02-22T00:06:50.904Z,6.00
2023-02-22T00:09:21.520Z,4.97
2023-02-22T00:11:50.250Z,4.70
2023-02-22T00:14:20.607Z,5.30
2023-02-22T00:16:48.950Z,4.97
2023-02-22T00:19:16.814Z,4.37
2023-02-22T00:21:45.309Z,4.70
2023-02-22T00:24:23.935Z,4.70
2023-02-22T00:26:53.211Z,4.97
2023-02-22T00:29:21.067Z,4.77
2023-02-22T00:31:49.023Z,4.50
2023-02-22T00:34:17.057Z,3.90
2023-02-22T00:36:48.311Z,4.07
2023-02-22T00:39:17.905Z,3.73
2023-02-22T00:41:46.032Z,3.37
2023-02-22T00:44:13.930Z,3.30
2023-02-22T00:46:41.804Z,3.90
2023-02-22T00:49:09.689Z,4.30
2023-02-22T00:51:37.557Z,3.70
2023-02-22T00:54:05.570Z,3.70
2023-02-22T00:56:35.902Z,3.60
2023-02-22T00:59:03.798Z,3.63
2023-02-22T01:01:31.839Z,3.37
2023-02-22T01:03:59.823Z,3.00
2023-02-22T01:06:27.803Z,4.70
2023-02-22T01:08:55.847Z,4.50
2023-02-22T01:11:23.742Z,4.83
2023-02-22T01:13:56.626Z,4.50
2023-02-22T01:16:25.134Z,4.30
2023-02-22T01:18:53.090Z,4.40
2023-02-22T01:21:21.062Z,3.93
2023-02-22T01:23:49.229Z,4.27
2023-02-22T01:26:17.110Z,4.80
2023-02-22T01:28:44.996Z,4.73
2023-02-22T01:31:14.372Z,4.37
2023-02-22T01:33:42.453Z,4.13
2023-02-22T01:36:11.514Z,5.13
2023-02-22T01:38:39.745Z,4.40
2023-02-22T01:41:07.775Z,4.40
2023-02-22T01:43:35.694Z,4.13
2023-02-22T01:46:05.117Z,4.63
2023-02-22T01:48:45.379Z,4.57
2023-02-22T01:51:18.155Z,4.40
2023-02-22T01:53:49.788Z,4.77
2023-02-22T01:56:20.157Z,4.90
2023-02-22T01:58:51.905Z,4.77
2023-02-22T02:01:23.509Z,4.50
2023-02-22T02:03:58.145Z,4.47
2023-02-22T02:06:27.638Z,4.63
2023-02-22T02:09:01.743Z,4.93
2023-02-22T02:11:30.010Z,4.07
2023-02-22T02:13:59.398Z,4.10
2023-02-22T02:16:40.184Z,4.33
2023-02-22T02:19:17.063Z,4.77
2023-02-22T02:22:18.331Z,5.50
2023-02-22T02:25:26.659Z,4.80
2023-02-22T02:28:15.225Z,4.90
2023-02-22T02:31:14.620Z,5.43
2023-02-22T02:33:46.143Z,5.63
2023-02-22T02:36:20.927Z,5.00
2023-02-22T02:38:56.804Z,4.90
2023-02-22T02:41:28.918Z,5.20
2023-02-22T02:44:01.477Z,5.23
2023-02-22T02:46:35.494Z,5.17
2023-02-22T02:49:09.742Z,5.53
2023-02-22T02:51:42.820Z,5.73
2023-02-22T02:54:13.480Z,5.47
2023-02-22T02:56:42.812Z,5.20
2023-02-22T02:59:25.769Z,6.97
2023-02-22T03:02:08.773Z,4.00
2023-02-22T03:04:54.503Z,3.77
2023-02-22T03:07:32.868Z,4.20
2023-02-22T03:10:14.708Z,4.50
2023-02-22T03:12:50.180Z,5.47
2023-02-22T03:15:34.139Z,5.53
2023-02-22T03:18:07.997Z,5.47
2023-02-22T03:20:46.439Z,4.27
2023-02-22T03:23:25.318Z,4.27
2023-02-22T03:25:57.690Z,4.00
2023-02-22T03:28:28.854Z,3.97
2023-02-22T03:31:02.101Z,3.03
2023-02-22T03:33:36.449Z,3.47
2023-02-22T03:36:13.517Z,3.00
2023-02-22T03:38:44.345Z,3.00
2023-02-22T03:41:17.361Z,2.37
2023-02-22T03:43:50.453Z,2.80
2023-02-22T03:46:20.461Z,2.90
2023-02-22T03:48:54.160Z,6.10
2023-02-22T03:51:24.708Z,5.73
2023-02-22T03:53:53.730Z,4.83
2023-02-22T03:56:26.923Z,5.37
2023-02-22T03:58:55.477Z,4.60
2023-02-22T04:01:23.736Z,5.00
2023-02-22T04:03:51.642Z,4.50
2023-02-22T04:06:19.504Z,5.30
2023-02-22T04:08:48.781Z,5.00
2023-02-22T04:11:16.960Z,5.00
2023-02-22T04:13:45.034Z,5.00
2023-02-22T04:16:13.044Z,4.87
2023-02-22T04:18:41.059Z,4.57
2023-02-22T04:21:09.358Z,4.97
2023-02-22T04:23:37.256Z,8.23
2023-02-22T04:26:06.733Z,7.93
2023-02-22T04:28:34.612Z,4.67
2023-02-22T04:31:02.520Z,4.77
2023-02-22T04:33:30.491Z,4.70
2023-02-22T04:35:59.484Z,5.43
2023-02-22T04:38:27.999Z,5.03
2023-02-22T04:40:56.315Z,4.60
2023-02-22T04:43:25.862Z,4.70
2023-02-22T04:45:53.957Z,5.53
2023-02-22T04:48:22.039Z,5.13
2023-02-22T04:50:51.360Z,5.13
2023-02-22T04:53:19.251Z,5.57
2023-02-22T04:55:47.235Z,6.07
2023-02-22T04:58:15.143Z,5.20
2023-02-22T05:00:44.350Z,5.43
2023-02-22T05:03:12.217Z,5.50
2023-02-22T05:05:40.274Z,5.50
2023-02-22T05:08:08.118Z,5.27
2023-02-22T05:10:35.998Z,5.80
2023-02-22T05:13:04.338Z,5.40
2023-02-22T05:15:32.604Z,5.87
2023-02-22T05:18:01.898Z,5.70
2023-02-22T05:20:32.044Z,5.17
2023-02-22T05:23:01.541Z,5.80
2023-02-22T05:25:29.739Z,5.70
2023-02-22T05:27:59.990Z,5.53
2023-02-22T05:30:30.592Z,6.20
2023-02-22T05:32:59.268Z,5.57
2023-02-22T05:35:29.399Z,6.37
2023-02-22T05:37:58.563Z,5.70
2023-02-22T05:40:28.163Z,5.97
2023-02-22T05:42:56.782Z,5.60
2023-02-22T05:45:27.002Z,4.80
2023-02-22T05:47:55.887Z,5.37
2023-02-22T05:50:24.560Z,5.57
2023-02-22T05:52:54.331Z,5.07
2023-02-22T05:55:24.184Z,4.83
2023-02-22T05:57:52.689Z,4.23
2023-02-22T06:00:23.599Z,21.73
2023-02-22T06:02:56.095Z,14.07
2023-02-22T06:05:24.048Z,6.07
2023-02-22T06:07:53.935Z,4.20
2023-02-22T06:10:22.231Z,4.17
2023-02-22T06:12:50.973Z,3.53
2023-02-22T06:15:20.630Z,3.80
2023-02-22T06:17:48.795Z,4.20
2023-02-22T06:20:19.328Z,3.90
2023-02-22T06:22:48.521Z,4.93
2023-02-22T06:25:20.109Z,4.30
2023-02-22T06:27:48.032Z,3.70
2023-02-22T06:30:17.797Z,3.00
2023-02-22T06:32:45.764Z,3.90
2023-02-22T06:35:13.953Z,4.87
2023-02-22T06:37:41.897Z,5.20
2023-02-22T06:40:11.289Z,5.23
2023-02-22T06:42:40.917Z,7.10
2023-02-22T06:45:10.240Z,5.43
2023-02-22T06:47:41.420Z,5.57
2023-02-22T06:50:18.494Z,5.93
2023-02-22T06:52:47.921Z,6.43
2023-02-22T06:55:19.030Z,6.23
2023-02-22T06:57:48.406Z,6.43
2023-02-22T07:00:17.809Z,6.90
2023-02-22T07:02:45.898Z,25.63
2023-02-22T07:05:14.023Z,8.10
2023-02-22T07:07:42.016Z,6.53
2023-02-22T07:10:17.194Z,6.80
2023-02-22T07:12:45.134Z,6.30
2023-02-22T07:15:14.791Z,6.37
2023-02-22T07:17:42.852Z,5.77
2023-02-22T07:20:11.655Z,6.37
2023-02-22T07:22:40.225Z,7.13
2023-02-22T07:25:11.290Z,8.10
2023-02-22T07:27:40.052Z,9.77
2023-02-22T07:30:10.174Z,8.37
2023-02-22T07:32:39.590Z,7.30
2023-02-22T07:35:08.419Z,7.60
2023-02-22T07:37:36.242Z,7.50
2023-02-22T07:40:04.301Z,6.67
2023-02-22T07:42:33.163Z,5.90
2023-02-22T07:45:00.999Z,7.17
2023-02-22T07:47:28.872Z,6.73
2023-02-22T07:49:58.674Z,6.60
2023-02-22T07:52:26.564Z,11.00
2023-02-22T07:54:54.669Z,6.33
2023-02-22T07:57:24.038Z,7.30
2023-02-22T07:59:51.883Z,6.90
2023-02-22T08:02:19.884Z,6.73
2023-02-22T08:04:47.784Z,6.00
2023-02-22T08:07:17.110Z,14.13
2023-02-22T08:09:45.027Z,6.80
2023-02-22T08:12:13.044Z,6.60
2023-02-22T08:14:40.946Z,6.13
2023-02-22T08:17:09.599Z,9.43
2023-02-22T08:19:39.251Z,8.17
2023-02-22T08:22:07.095Z,8.03
2023-02-22T08:24:36.357Z,6.13
2023-02-22T08:27:04.220Z,7.30
2023-02-22T08:29:33.637Z,7.70
2023-02-22T08:32:01.907Z,6.87
2023-02-22T08:34:29.853Z,7.70
2023-02-22T08:36:57.920Z,7.82
2023-02-22T08:39:25.827Z,8.50
2023-02-22T08:41:55.073Z,8.20
2023-02-22T08:44:24.224Z,8.82
2023-02-22T08:46:52.710Z,9.68
2023-02-22T08:49:20.660Z,9.03
2023-02-22T08:51:49.030Z,8.20
2023-02-22T08:54:18.265Z,7.57
2023-02-22T08:56:46.228Z,7.90
2023-02-22T08:59:15.906Z,7.00
2023-02-22T09:01:44.201Z,3.97
2023-02-22T09:04:12.102Z,3.22
2023-02-22T09:06:42.373Z,4.10
2023-02-22T09:09:10.866Z,3.63
2023-02-22T09:11:38.716Z,3.83
2023-02-22T09:14:06.595Z,3.83
2023-02-22T09:16:38.023Z,3.45
2023-02-22T09:19:05.941Z,4.00
2023-02-22T09:21:44.855Z,3.20
2023-02-22T09:24:12.886Z,3.80
2023-02-22T09:26:40.796Z,3.40
2023-02-22T09:29:09.843Z,3.50
2023-02-22T09:31:40.512Z,3.05
2023-02-22T09:34:13.972Z,2.45
2023-02-22T09:36:42.101Z,2.78
2023-02-22T09:39:11.329Z,2.83
2023-02-22T09:41:48.029Z,2.78
2023-02-22T09:44:24.048Z,2.67
2023-02-22T09:46:56.280Z,2.50
2023-02-22T09:49:29.452Z,2.40
2023-02-22T09:52:02.637Z,2.08
2023-02-22T09:54:35.825Z,2.35
2023-02-22T09:57:08.723Z,1.90
2023-02-22T09:59:43.476Z,2.70
2023-02-22T10:02:25.916Z,2.30
2023-02-22T10:04:58.654Z,2.40
2023-02-22T10:07:33.269Z,2.40
2023-02-22T10:10:06.844Z,1.98
2023-02-22T10:12:49.649Z,2.38
2023-02-22T10:15:47.559Z,2.42
2023-02-22T10:18:46.849Z,2.22
2023-02-22T10:21:28.107Z,2.47
2023-02-22T10:24:06.138Z,2.70
2023-02-22T10:26:37.680Z,2.22
2023-02-22T10:29:11.864Z,2.08
2023-02-22T10:31:59.479Z,2.22
2023-02-22T10:34:34.959Z,2.15
2023-02-22T10:37:15.690Z,5.82
2023-02-22T10:39:45.641Z,2.60
2023-02-22T10:42:13.640Z,2.55
2023-02-22T10:44:42.171Z,2.67
2023-02-22T10:47:12.747Z,3.15
2023-02-22T10:49:45.448Z,2.97
2023-02-22T10:52:18.517Z,3.00
2023-02-22T10:54:49.586Z,3.10
2023-02-22T10:57:22.373Z,3.70
2023-02-22T10:59:52.052Z,3.08
2023-02-22T11:02:25.090Z,2.35
2023-02-22T11:04:56.417Z,2.08
2023-02-22T11:07:27.311Z,2.30
2023-02-22T11:09:56.997Z,2.20
2023-02-22T11:12:32.031Z,2.50
2023-02-22T11:15:18.940Z,2.30
2023-02-22T11:17:48.545Z,2.10
2023-02-22T11:20:25.364Z,2.35
2023-02-22T11:22:55.570Z,2.47
2023-02-22T11:25:29.710Z,2.47
2023-02-22T11:28:09.426Z,2.30
2023-02-22T11:30:38.449Z,2.67
2023-02-22T11:33:23.436Z,2.30
2023-02-22T11:35:54.699Z,2.42
2023-02-22T11:38:24.815Z,3.00
2023-02-22T11:41:09.198Z,1.80
2023-02-22T11:43:37.721Z,1.73
2023-02-22T11:46:08.523Z,1.77
2023-02-22T11:48:39.483Z,1.60
2023-02-22T11:51:27.725Z,1.73
2023-02-22T11:54:25.471Z,2.47
2023-02-22T11:56:56.809Z,1.70
2023-02-22T11:59:38.473Z,4.40
2023-02-22T12:02:30.483Z,2.00
2023-02-22T12:05:13.788Z,1.73
2023-02-22T12:07:57.018Z,1.88
2023-02-22T12:10:35.233Z,1.60
2023-02-22T12:13:19.611Z,1.60
2023-02-22T12:15:57.386Z,1.60
2023-02-22T12:18:35.900Z,2.35
2023-02-22T12:21:08.270Z,1.75
2023-02-22T12:23:45.973Z,1.67
2023-02-22T12:26:20.077Z,1.80
2023-02-22T12:28:53.417Z,1.65
2023-02-22T12:31:25.338Z,1.73
2023-02-22T12:34:03.496Z,1.60
2023-02-22T12:36:37.145Z,1.67
2023-02-22T12:39:23.561Z,1.70
2023-02-22T12:41:55.728Z,1.63
2023-02-22T12:44:27.603Z,1.60
2023-02-22T12:47:00.144Z,1.60
2023-02-22T12:49:35.888Z,1.88
2023-02-22T12:52:21.373Z,1.45
2023-02-22T12:54:59.388Z,1.70
2023-02-22T12:57:39.186Z,1.70
2023-02-22T13:00:17.202Z,1.58
2023-02-22T13:02:50.453Z,1.92
2023-02-22T13:05:20.922Z,1.67
2023-02-22T13:07:59.823Z,1.67
2023-02-22T13:10:47.563Z,1.50
2023-02-22T13:13:21.600Z,1.50
2023-02-22T13:15:56.312Z,1.88
2023-02-22T13:18:29.759Z,1.65
2023-02-22T13:21:04.030Z,1.52
2023-02-22T13:23:44.634Z,1.90
2023-02-22T13:26:20.251Z,1.45
2023-02-22T13:28:52.235Z,1.60
2023-02-22T13:31:35.992Z,1.70
2023-02-22T13:34:21.187Z,1.88
2023-02-22T13:37:01.831Z,2.03
2023-02-22T13:40:02.546Z,1.83
2023-02-22T13:42:55.248Z,1.85
2023-02-22T13:45:49.874Z,2.10
2023-02-22T13:48:35.644Z,2.60
2023-02-22T13:51:12.170Z,2.05
2023-02-22T13:53:49.842Z,1.98
2023-02-22T13:56:19.922Z,2.38
2023-02-22T13:58:52.181Z,2.03
2023-02-22T14:01:40.677Z,2.03
2023-02-22T14:04:33.627Z,1.77
2023-02-22T14:07:02.734Z,2.03
2023-02-22T14:09:48.226Z,1.80
2023-02-22T14:12:59.067Z,2.28
2023-02-22T14:15:30.328Z,2.15
2023-02-22T14:18:00.937Z,2.08
2023-02-22T14:20:32.515Z,2.33
2023-02-22T14:23:32.953Z,2.33
2023-02-22T14:26:13.383Z,2.10
2023-02-22T14:28:50.534Z,2.15
2023-02-22T14:31:35.002Z,2.08
2023-02-22T14:34:11.257Z,2.17
2023-02-22T14:36:53.380Z,2.38
2023-02-22T14:39:31.801Z,1.70
2023-02-22T14:42:03.728Z,2.20
2023-02-22T14:44:37.120Z,2.20
2023-02-22T14:47:08.822Z,2.25
2023-02-22T14:49:42.537Z,2.30
2023-02-22T14:52:22.499Z,1.83
2023-02-22T14:54:59.866Z,1.83
2023-02-22T14:57:38.645Z,3.00
2023-02-22T15:00:20.742Z,2.08
2023-02-22T15:02:52.428Z,1.90
2023-02-22T15:05:21.191Z,2.10
2023-02-22T15:07:54.477Z,2.35
2023-02-22T15:10:26.701Z,2.30
2023-02-22T15:13:08.936Z,2.78
2023-02-22T15:15:39.636Z,2.50
2023-02-22T15:18:20.353Z,2.75
2023-02-22T15:20:55.949Z,2.28
2023-02-22T15:23:27.783Z,2.63
2023-02-22T15:25:55.734Z,2.90
2023-02-22T15:28:25.494Z,2.70
2023-02-22T15:30:53.412Z,2.65
2023-02-22T15:33:24.685Z,2.95
2023-02-22T15:35:57.883Z,2.95
2023-02-22T15:38:33.288Z,2.80
2023-02-22T15:41:03.322Z,2.60
2023-02-22T15:43:32.724Z,2.90
2023-02-22T15:46:01.969Z,3.10
2023-02-22T15:48:31.918Z,2.92
2023-02-22T15:51:07.857Z,3.00
2023-02-22T15:53:41.161Z,3.15
2023-02-22T15:56:13.737Z,3.20
2023-02-22T15:58:43.269Z,3.28
2023-02-22T16:01:14.249Z,3.00
2023-02-22T16:03:47.701Z,2.95
2023-02-22T16:06:27.734Z,3.40
2023-02-22T16:08:57.715Z,3.65
2023-02-22T16:11:31.053Z,3.47
2023-02-22T16:14:05.128Z,3.08
2023-02-22T16:16:34.891Z,3.42
2023-02-22T16:19:37.900Z,3.47
2023-02-22T16:22:13.760Z,3.80
2023-02-22T16:24:42.504Z,4.00
2023-02-22T16:27:22.188Z,5.50
2023-02-22T16:30:15.541Z,3.58
2023-02-22T16:32:50.746Z,7.38
2023-02-22T16:35:20.249Z,3.92
2023-02-22T16:37:50.169Z,3.88
2023-02-22T16:40:24.908Z,4.90
2023-02-22T16:42:52.891Z,3.63
2023-02-22T16:45:22.770Z,4.20
2023-02-22T16:47:53.770Z,4.25
2023-02-22T16:50:23.890Z,4.15
2023-02-22T16:52:55.251Z,4.60
2023-02-22T16:55:24.743Z,5.15
2023-02-22T16:57:57.081Z,6.25
2023-02-22T17:00:32.035Z,5.35
2023-02-22T17:03:03.856Z,6.13
2023-02-22T17:05:36.413Z,5.55
2023-02-22T17:08:05.061Z,5.63
2023-02-22T17:10:34.197Z,5.80
2023-02-22T17:13:16.168Z,5.15
2023-02-22T17:15:49.766Z,5.53
2023-02-22T17:18:22.654Z,5.35
2023-02-22T17:20:52.602Z,4.82
2023-02-22T17:23:21.152Z,5.35
2023-02-22T17:25:54.493Z,5.10
2023-02-22T17:28:23.667Z,4.90
2023-02-22T17:30:52.177Z,4.72
2023-02-22T17:33:22.757Z,4.65
2023-02-22T17:35:52.196Z,4.20
2023-02-22T17:38:20.698Z,4.60
2023-02-22T17:40:49.268Z,4.45
2023-02-22T17:43:19.463Z,4.60
2023-02-22T17:45:47.979Z,5.40
2023-02-22T17:48:17.482Z,5.07
2023-02-22T17:50:46.878Z,4.70
2023-02-22T17:53:18.231Z,5.53
2023-02-22T17:55:46.154Z,5.38
2023-02-22T17:58:15.065Z,5.13
2023-02-22T18:00:45.065Z,5.25
2023-02-22T18:03:16.194Z,5.13
2023-02-22T18:05:46.259Z,5.38
2023-02-22T18:08:14.562Z,5.47
2023-02-22T18:10:44.519Z,4.72
2023-02-22T18:13:16.706Z,5.20
2023-02-22T18:15:45.430Z,4.75
2023-02-22T18:18:13.593Z,5.30
2023-02-22T18:20:43.903Z,6.55
2023-02-22T18:23:14.517Z,6.03
2023-02-22T18:26:03.707Z,7.75
2023-02-22T18:28:37.752Z,7.75
2023-02-22T18:31:08.531Z,5.93
2023-02-22T18:33:36.717Z,5.68
2023-02-22T18:36:05.205Z,5.50
2023-02-22T18:38:33.117Z,5.00
2023-02-22T18:41:03.698Z,5.93
2023-02-22T18:43:34.287Z,4.82
2023-02-22T18:46:10.078Z,5.35
2023-02-22T18:48:39.102Z,4.93
2023-02-22T18:51:09.838Z,5.05
2023-02-22T18:53:38.672Z,4.82
2023-02-22T18:56:10.179Z,4.65
2023-02-22T18:58:38.980Z,4.25
2023-02-22T19:01:08.248Z,5.40
2023-02-22T19:03:38.460Z,4.85
2023-02-22T19:06:09.196Z,4.75
2023-02-22T19:08:39.632Z,5.70
2023-02-22T19:11:11.519Z,5.10
2023-02-22T19:13:39.818Z,5.70
2023-02-22T19:16:08.290Z,5.40
2023-02-22T19:18:36.301Z,4.93
2023-02-22T19:21:08.593Z,6.30
2023-02-22T19:23:38.808Z,5.35
2023-02-22T19:26:09.421Z,5.82
2023-02-22T19:28:37.368Z,5.80
2023-02-22T19:31:13.260Z,5.32
2023-02-22T19:33:41.825Z,5.15
2023-02-22T19:36:11.050Z,4.82
2023-02-22T19:38:39.437Z,3.88
2023-02-22T19:41:10.490Z,5.03
2023-02-22T19:43:38.528Z,5.18
2023-02-22T19:46:07.627Z,4.70
2023-02-22T19:48:36.295Z,5.15
2023-02-22T19:51:06.522Z,5.32
2023-02-22T19:53:35.055Z,5.15
2023-02-22T19:56:09.480Z,4.88
2023-02-22T19:58:39.685Z,5.10
2023-02-22T20:01:15.184Z,5.38
2023-02-22T20:03:43.636Z,5.07
2023-02-22T20:06:16.739Z,5.63
2023-02-22T20:08:44.925Z,5.45
2023-02-22T20:11:14.075Z,5.68
2023-02-22T20:13:43.703Z,5.75
2023-02-22T20:16:15.747Z,5.77
2023-02-22T20:18:44.411Z,5.53
2023-02-22T20:21:15.559Z,5.60
2023-02-22T20:23:44.452Z,5.10
2023-02-22T20:26:16.641Z,5.63
2023-02-22T20:28:46.694Z,5.30
2023-02-22T20:31:16.681Z,5.30
2023-02-22T20:33:46.677Z,5.40
2023-02-22T20:36:16.994Z,5.27
2023-02-22T20:38:45.225Z,6.15
2023-02-22T20:41:15.653Z,5.80
2023-02-22T20:43:45.177Z,5.70
2023-02-22T20:46:13.679Z,6.57
2023-02-22T20:48:42.036Z,6.47
2023-02-22T20:51:11.268Z,8.70
2023-02-22T20:53:41.817Z,12.60
2023-02-22T20:56:13.387Z,6.87
2023-02-22T20:58:41.363Z,6.40
2023-02-22T21:01:13.928Z,7.18
2023-02-22T21:03:43.257Z,6.93
2023-02-22T21:06:15.050Z,6.25
2023-02-22T21:08:44.321Z,6.47
2023-02-22T21:11:16.199Z,4.93
2023-02-22T21:13:45.186Z,4.93
2023-02-22T21:16:19.175Z,4.90
2023-02-22T21:18:47.095Z,5.38
2023-02-22T21:21:16.683Z,5.55
2023-02-22T21:23:50.222Z,6.53
2023-02-22T21:26:20.100Z,5.53
2023-02-22T21:28:51.427Z,4.80
2023-02-22T21:31:23.051Z,6.27
2023-02-22T21:33:52.686Z,6.75
2023-02-22T21:36:25.169Z,6.23
2023-02-22T21:38:55.633Z,5.67
2023-02-22T21:41:27.819Z,6.07
2023-02-22T21:43:56.897Z,6.00
2023-02-22T21:46:27.161Z,6.43
2023-02-22T21:48:55.894Z,5.73
2023-02-22T21:51:26.382Z,5.77
2023-02-22T21:53:55.697Z,5.70
2023-02-22T21:56:27.529Z,6.00
2023-02-22T21:58:59.184Z,6.47
2023-02-22T22:01:30.052Z,6.80
2023-02-22T22:04:00.417Z,6.83
2023-02-22T22:06:29.653Z,6.90
2023-02-22T22:08:59.840Z,6.70
2023-02-22T22:11:30.693Z,6.60
2023-02-22T22:14:00.442Z,6.03
2023-02-22T22:16:30.446Z,6.37
2023-02-22T22:18:58.819Z,7.13
2023-02-22T22:21:27.039Z,5.70
2023-02-22T22:23:56.171Z,6.53
2023-02-22T22:26:26.320Z,7.13
2023-02-22T22:28:55.953Z,9.37
2023-02-22T22:31:25.895Z,9.90
2023-02-22T22:33:56.326Z,10.53
2023-02-22T22:36:26.162Z,10.60
2023-02-22T22:38:57.510Z,11.40
2023-02-22T22:41:28.922Z,11.43
2023-02-22T22:43:57.357Z,11.90
2023-02-22T22:46:25.426Z,11.47
2023-02-22T22:48:53.385Z,11.27
2023-02-22T22:51:23.076Z,11.43
2023-02-22T22:53:51.918Z,11.80
2023-02-22T22:56:26.035Z,11.70
2023-02-22T22:58:56.920Z,10.57
2023-02-22T23:01:27.357Z,11.60
2023-02-22T23:03:59.860Z,11.97
2023-02-22T23:06:33.117Z,10.87
2023-02-22T23:09:10.199Z,10.07
2023-02-22T23:11:44.420Z,10.50
2023-02-22T23:14:13.500Z,10.10
2023-02-22T23:16:42.791Z,10.80
2023-02-22T23:19:11.159Z,9.87
2023-02-22T23:21:43.164Z,15.63
2023-02-22T23:24:15.201Z,10.30
2023-02-22T23:26:48.346Z,10.37
2023-02-22T23:29:17.166Z,9.83
2023-02-22T23:31:48.218Z,9.77
2023-02-22T23:34:17.141Z,10.57
2023-02-22T23:36:46.735Z,10.10
2023-02-22T23:39:16.885Z,11.03
2023-02-22T23:41:44.873Z,10.60
2023-02-22T23:44:17.426Z,12.33
2023-02-22T23:46:48.245Z,11.13
2023-02-22T23:49:20.664Z,10.53
2023-02-22T23:51:50.491Z,10.03
2023-02-22T23:54:21.150Z,10.80
2023-02-22T23:56:56.915Z,9.93
2023-02-22T23:59:25.954Z,10.43
